sensor_id;sensor_type;location;lat;lon;timestamp;P1;durP1;ratioP1;P2;durP2;ratioP2
71183;SDS011;58887;51.980;4.464;2023-04-25T00:01:28;3.77;;;3.04;;
71183;SDS011;58887;51.980;4.464;2023-04-25T00:03:53;3.80;;;3.08;;
71183;SDS011;58887;51.980;4.464;2023-04-25T00:06:19;4.07;;;3.25;;
71183;SDS011;58887;51.980;4.464;2023-04-25T00:08:45;3.79;;;3.08;;
71183;SDS011;58887;51.980;4.464;2023-04-25T00:11:10;3.82;;;3.12;;
71183;SDS011;58887;51.980;4.464;2023-04-25T00:13:35;3.83;;;3.10;;
71183;SDS011;58887;51.980;4.464;2023-04-25T00:16:01;3.47;;;2.87;;
71183;SDS011;58887;51.980;4.464;2023-04-25T00:18:27;2.97;;;2.47;;
71183;SDS011;58887;51.980;4.464;2023-04-25T00:20:54;3.70;;;3.01;;
71183;SDS011;58887;51.980;4.464;2023-04-25T00:23:20;2.97;;;2.45;;
71183;SDS011;58887;51.980;4.464;2023-04-25T00:25:47;3.35;;;2.75;;
71183;SDS011;58887;51.980;4.464;2023-04-25T00:28:14;40.97;;;39.23;;
71183;SDS011;58887;51.980;4.464;2023-04-25T00:30:40;2.03;;;2.03;;
71183;SDS011;58887;51.980;4.464;2023-04-25T00:33:06;1.97;;;1.97;;
71183;SDS011;58887;51.980;4.464;2023-04-25T00:35:32;2.33;;;2.31;;
71183;SDS011;58887;51.980;4.464;2023-04-25T00:37:59;2.51;;;2.24;;
71183;SDS011;58887;51.980;4.464;2023-04-25T00:40:24;2.87;;;2.51;;
71183;SDS011;58887;51.980;4.464;2023-04-25T00:42:51;3.18;;;2.71;;
71183;SDS011;58887;51.980;4.464;2023-04-25T00:45:18;3.29;;;2.71;;
71183;SDS011;58887;51.980;4.464;2023-04-25T00:47:44;3.01;;;2.48;;
71183;SDS011;58887;51.980;4.464;2023-04-25T00:50:11;2.74;;;2.29;;
71183;SDS011;58887;51.980;4.464;2023-04-25T00:52:41;2.95;;;2.44;;
71183;SDS011;58887;51.980;4.464;2023-04-25T00:55:09;3.03;;;2.48;;
71183;SDS011;58887;51.980;4.464;2023-04-25T00:57:37;3.50;;;2.94;;
71183;SDS011;58887;51.980;4.464;2023-04-25T01:00:04;3.05;;;2.60;;
71183;SDS011;58887;51.980;4.464;2023-04-25T01:02:32;2.92;;;2.53;;
71183;SDS011;58887;51.980;4.464;2023-04-25T01:04:58;2.83;;;2.44;;
71183;SDS011;58887;51.980;4.464;2023-04-25T01:07:24;2.38;;;2.08;;
71183;SDS011;58887;51.980;4.464;2023-04-25T01:09:51;2.91;;;2.51;;
71183;SDS011;58887;51.980;4.464;2023-04-25T01:12:17;2.99;;;2.52;;
71183;SDS011;58887;51.980;4.464;2023-04-25T01:14:42;2.89;;;2.51;;
71183;SDS011;58887;51.980;4.464;2023-04-25T01:17:09;2.68;;;2.35;;
71183;SDS011;58887;51.980;4.464;2023-04-25T01:19:36;2.27;;;2.04;;
71183;SDS011;58887;51.980;4.464;2023-04-25T01:22:02;2.32;;;2.09;;
71183;SDS011;58887;51.980;4.464;2023-04-25T01:24:29;2.19;;;1.97;;
71183;SDS011;58887;51.980;4.464;2023-04-25T01:26:56;2.84;;;2.50;;
71183;SDS011;58887;51.980;4.464;2023-04-25T01:29:24;4.28;;;4.06;;
71183;SDS011;58887;51.980;4.464;2023-04-25T01:31:51;3.23;;;3.23;;
71183;SDS011;58887;51.980;4.464;2023-04-25T01:34:18;2.05;;;2.05;;
71183;SDS011;58887;51.980;4.464;2023-04-25T01:36:44;1.79;;;1.79;;
71183;SDS011;58887;51.980;4.464;2023-04-25T01:39:09;2.13;;;1.96;;
71183;SDS011;58887;51.980;4.464;2023-04-25T01:41:35;2.33;;;2.09;;
71183;SDS011;58887;51.980;4.464;2023-04-25T01:44:01;2.40;;;2.06;;
71183;SDS011;58887;51.980;4.464;2023-04-25T01:46:29;2.40;;;2.07;;
71183;SDS011;58887;51.980;4.464;2023-04-25T01:48:55;2.48;;;2.13;;
71183;SDS011;58887;51.980;4.464;2023-04-25T01:51:21;2.51;;;2.13;;
71183;SDS011;58887;51.980;4.464;2023-04-25T01:53:47;2.72;;;2.30;;
71183;SDS011;58887;51.980;4.464;2023-04-25T01:56:13;2.49;;;2.08;;
71183;SDS011;58887;51.980;4.464;2023-04-25T01:58:38;2.55;;;2.15;;
71183;SDS011;58887;51.980;4.464;2023-04-25T02:01:04;2.38;;;2.02;;
71183;SDS011;58887;51.980;4.464;2023-04-25T02:03:30;2.40;;;2.04;;
71183;SDS011;58887;51.980;4.464;2023-04-25T02:05:57;2.34;;;2.00;;
71183;SDS011;58887;51.980;4.464;2023-04-25T02:08:22;2.64;;;2.26;;
71183;SDS011;58887;51.980;4.464;2023-04-25T02:10:48;2.71;;;2.30;;
71183;SDS011;58887;51.980;4.464;2023-04-25T02:13:13;2.83;;;2.42;;
71183;SDS011;58887;51.980;4.464;2023-04-25T02:15:39;2.87;;;2.45;;
71183;SDS011;58887;51.980;4.464;2023-04-25T02:18:05;2.54;;;2.16;;
71183;SDS011;58887;51.980;4.464;2023-04-25T02:20:31;2.69;;;2.27;;
71183;SDS011;58887;51.980;4.464;2023-04-25T02:23:05;2.86;;;2.34;;
71183;SDS011;58887;51.980;4.464;2023-04-25T02:28:54;4.14;;;4.00;;
71183;SDS011;58887;51.980;4.464;2023-04-25T02:31:20;2.02;;;2.02;;
71183;SDS011;58887;51.980;4.464;2023-04-25T02:33:45;1.85;;;1.85;;
71183;SDS011;58887;51.980;4.464;2023-04-25T02:36:12;1.55;;;1.50;;
71183;SDS011;58887;51.980;4.464;2023-04-25T02:38:37;2.09;;;1.86;;
71183;SDS011;58887;51.980;4.464;2023-04-25T02:41:05;1.58;;;1.39;;
71183;SDS011;58887;51.980;4.464;2023-04-25T02:43:31;1.98;;;1.77;;
71183;SDS011;58887;51.980;4.464;2023-04-25T02:45:56;1.67;;;1.50;;
71183;SDS011;58887;51.980;4.464;2023-04-25T02:48:23;2.20;;;1.96;;
71183;SDS011;58887;51.980;4.464;2023-04-25T02:50:48;3.83;;;3.74;;
71183;SDS011;58887;51.980;4.464;2023-04-25T02:53:13;4.13;;;4.13;;
71183;SDS011;58887;51.980;4.464;2023-04-25T02:55:39;10.16;;;10.16;;
71183;SDS011;58887;51.980;4.464;2023-04-25T02:58:04;30.50;;;30.50;;
71183;SDS011;58887;51.980;4.464;2023-04-25T03:00:30;28.33;;;28.33;;
71183;SDS011;58887;51.980;4.464;2023-04-25T03:02:56;9.34;;;9.34;;
71183;SDS011;58887;51.980;4.464;2023-04-25T03:05:21;34.09;;;34.09;;
71183;SDS011;58887;51.980;4.464;2023-04-25T03:07:47;30.68;;;30.68;;
71183;SDS011;58887;51.980;4.464;2023-04-25T03:10:12;8.27;;;8.27;;
71183;SDS011;58887;51.980;4.464;2023-04-25T03:12:38;18.95;;;18.95;;
71183;SDS011;58887;51.980;4.464;2023-04-25T03:15:04;15.27;;;15.27;;
71183;SDS011;58887;51.980;4.464;2023-04-25T03:17:30;12.08;;;12.08;;
71183;SDS011;58887;51.980;4.464;2023-04-25T03:19:56;13.55;;;13.55;;
71183;SDS011;58887;51.980;4.464;2023-04-25T03:22:22;2.75;;;2.75;;
71183;SDS011;58887;51.980;4.464;2023-04-25T03:24:49;4.57;;;4.57;;
71183;SDS011;58887;51.980;4.464;2023-04-25T03:27:15;4.29;;;4.29;;
71183;SDS011;58887;51.980;4.464;2023-04-25T03:29:41;6.59;;;6.59;;
71183;SDS011;58887;51.980;4.464;2023-04-25T03:32:07;5.08;;;5.08;;
71183;SDS011;58887;51.980;4.464;2023-04-25T03:34:32;9.50;;;9.50;;
71183;SDS011;58887;51.980;4.464;2023-04-25T03:36:59;10.36;;;10.36;;
71183;SDS011;58887;51.980;4.464;2023-04-25T03:39:25;5.65;;;5.65;;
71183;SDS011;58887;51.980;4.464;2023-04-25T03:41:50;5.25;;;5.25;;
71183;SDS011;58887;51.980;4.464;2023-04-25T03:44:16;5.09;;;5.09;;
71183;SDS011;58887;51.980;4.464;2023-04-25T03:46:41;14.52;;;14.52;;
71183;SDS011;58887;51.980;4.464;2023-04-25T03:49:07;12.38;;;12.38;;
71183;SDS011;58887;51.980;4.464;2023-04-25T03:51:32;7.09;;;7.09;;
71183;SDS011;58887;51.980;4.464;2023-04-25T03:56:47;15.93;;;15.93;;
71183;SDS011;58887;51.980;4.464;2023-04-25T03:59:13;2.26;;;2.26;;
71183;SDS011;58887;51.980;4.464;2023-04-25T04:01:39;11.90;;;11.90;;
71183;SDS011;58887;51.980;4.464;2023-04-25T04:04:04;17.74;;;17.74;;
71183;SDS011;58887;51.980;4.464;2023-04-25T04:06:31;7.36;;;7.36;;
71183;SDS011;58887;51.980;4.464;2023-04-25T04:08:57;11.71;;;11.71;;
71183;SDS011;58887;51.980;4.464;2023-04-25T04:11:23;10.23;;;10.23;;
71183;SDS011;58887;51.980;4.464;2023-04-25T04:13:54;13.49;;;13.49;;
71183;SDS011;58887;51.980;4.464;2023-04-25T04:16:22;28.22;;;28.22;;
71183;SDS011;58887;51.980;4.464;2023-04-25T04:18:49;23.61;;;23.61;;
71183;SDS011;58887;51.980;4.464;2023-04-25T04:21:14;24.57;;;24.57;;
71183;SDS011;58887;51.980;4.464;2023-04-25T04:23:40;8.36;;;8.36;;
71183;SDS011;58887;51.980;4.464;2023-04-25T04:26:06;9.24;;;9.24;;
71183;SDS011;58887;51.980;4.464;2023-04-25T04:28:33;31.38;;;31.38;;
71183;SDS011;58887;51.980;4.464;2023-04-25T04:31:00;4.13;;;4.13;;
71183;SDS011;58887;51.980;4.464;2023-04-25T04:33:27;3.56;;;3.56;;
71183;SDS011;58887;51.980;4.464;2023-04-25T04:35:53;7.32;;;7.32;;
71183;SDS011;58887;51.980;4.464;2023-04-25T04:38:21;2.25;;;2.25;;
71183;SDS011;58887;51.980;4.464;2023-04-25T04:40:48;1.94;;;1.94;;
71183;SDS011;58887;51.980;4.464;2023-04-25T04:43:14;1.71;;;1.71;;
71183;SDS011;58887;51.980;4.464;2023-04-25T04:45:43;1.83;;;1.83;;
71183;SDS011;58887;51.980;4.464;2023-04-25T04:48:09;1.62;;;1.62;;
71183;SDS011;58887;51.980;4.464;2023-04-25T04:50:37;1.26;;;1.26;;
71183;SDS011;58887;51.980;4.464;2023-04-25T04:53:04;1.63;;;1.63;;
71183;SDS011;58887;51.980;4.464;2023-04-25T04:55:29;1.36;;;1.36;;
71183;SDS011;58887;51.980;4.464;2023-04-25T04:57:55;1.59;;;1.50;;
71183;SDS011;58887;51.980;4.464;2023-04-25T05:00:20;1.76;;;1.51;;
71183;SDS011;58887;51.980;4.464;2023-04-25T05:02:47;4.29;;;4.17;;
71183;SDS011;58887;51.980;4.464;2023-04-25T05:05:12;4.12;;;4.12;;
71183;SDS011;58887;51.980;4.464;2023-04-25T05:07:38;3.55;;;3.55;;
71183;SDS011;58887;51.980;4.464;2023-04-25T05:10:03;2.60;;;2.60;;
71183;SDS011;58887;51.980;4.464;2023-04-25T05:12:29;1.56;;;1.56;;
71183;SDS011;58887;51.980;4.464;2023-04-25T05:14:55;1.99;;;1.99;;
71183;SDS011;58887;51.980;4.464;2023-04-25T05:17:21;2.88;;;2.88;;
71183;SDS011;58887;51.980;4.464;2023-04-25T05:19:47;2.20;;;2.20;;
71183;SDS011;58887;51.980;4.464;2023-04-25T05:22:13;3.19;;;3.19;;
71183;SDS011;58887;51.980;4.464;2023-04-25T05:24:38;12.78;;;12.78;;
71183;SDS011;58887;51.980;4.464;2023-04-25T05:27:04;11.39;;;11.39;;
71183;SDS011;58887;51.980;4.464;2023-04-25T05:29:30;24.47;;;24.47;;
71183;SDS011;58887;51.980;4.464;2023-04-25T05:31:56;28.04;;;28.04;;
71183;SDS011;58887;51.980;4.464;2023-04-25T05:34:21;24.10;;;24.10;;
71183;SDS011;58887;51.980;4.464;2023-04-25T05:36:48;9.84;;;9.84;;
71183;SDS011;58887;51.980;4.464;2023-04-25T05:39:16;25.05;;;25.05;;
71183;SDS011;58887;51.980;4.464;2023-04-25T05:41:42;7.71;;;7.71;;
71183;SDS011;58887;51.980;4.464;2023-04-25T05:44:08;33.24;;;33.24;;
71183;SDS011;58887;51.980;4.464;2023-04-25T05:46:34;0.94;;;0.94;;
71183;SDS011;58887;51.980;4.464;2023-04-25T05:48:59;1.16;;;1.16;;
71183;SDS011;58887;51.980;4.464;2023-04-25T05:51:26;174.24;;;174.24;;
71183;SDS011;58887;51.980;4.464;2023-04-25T05:53:52;1.78;;;1.78;;
71183;SDS011;58887;51.980;4.464;2023-04-25T05:56:18;2.15;;;2.15;;
71183;SDS011;58887;51.980;4.464;2023-04-25T05:58:43;1.05;;;1.05;;
71183;SDS011;58887;51.980;4.464;2023-04-25T06:01:09;1.13;;;1.13;;
71183;SDS011;58887;51.980;4.464;2023-04-25T06:03:35;1.01;;;1.01;;
71183;SDS011;58887;51.980;4.464;2023-04-25T06:06:00;1.72;;;1.72;;
71183;SDS011;58887;51.980;4.464;2023-04-25T06:08:26;1.15;;;1.15;;
71183;SDS011;58887;51.980;4.464;2023-04-25T06:10:51;0.97;;;0.97;;
71183;SDS011;58887;51.980;4.464;2023-04-25T06:13:17;1.52;;;1.52;;
71183;SDS011;58887;51.980;4.464;2023-04-25T06:15:42;0.97;;;0.97;;
71183;SDS011;58887;51.980;4.464;2023-04-25T06:18:08;1.17;;;1.17;;
71183;SDS011;58887;51.980;4.464;2023-04-25T06:26:31;9.54;;;9.54;;
71183;SDS011;58887;51.980;4.464;2023-04-25T06:28:56;17.95;;;17.95;;
71183;SDS011;58887;51.980;4.464;2023-04-25T06:31:22;9.93;;;9.93;;
71183;SDS011;58887;51.980;4.464;2023-04-25T06:33:49;3.47;;;3.47;;
71183;SDS011;58887;51.980;4.464;2023-04-25T06:36:16;11.10;;;11.10;;
71183;SDS011;58887;51.980;4.464;2023-04-25T06:38:41;7.31;;;7.31;;
71183;SDS011;58887;51.980;4.464;2023-04-25T06:41:07;3.77;;;3.77;;
71183;SDS011;58887;51.980;4.464;2023-04-25T06:43:33;2.82;;;2.82;;
71183;SDS011;58887;51.980;4.464;2023-04-25T06:46:02;46.94;;;46.94;;
71183;SDS011;58887;51.980;4.464;2023-04-25T06:48:27;718.71;;;556.67;;
71183;SDS011;58887;51.980;4.464;2023-04-25T06:50:53;408.21;;;322.11;;
71183;SDS011;58887;51.980;4.464;2023-04-25T06:53:19;876.34;;;667.35;;
71183;SDS011;58887;51.980;4.464;2023-04-25T06:55:45;2781.06;;;1816.73;;
71183;SDS011;58887;51.980;4.464;2023-04-25T06:58:10;658.63;;;506.08;;
71183;SDS011;58887;51.980;4.464;2023-04-25T07:00:35;364.13;;;313.73;;
71183;SDS011;58887;51.980;4.464;2023-04-25T07:03:01;288.58;;;273.68;;
71183;SDS011;58887;51.980;4.464;2023-04-25T07:05:27;1111.52;;;775.14;;
71183;SDS011;58887;51.980;4.464;2023-04-25T07:07:52;1999.00;;;1308.71;;
71183;SDS011;58887;51.980;4.464;2023-04-25T07:10:18;1769.74;;;1364.96;;
71183;SDS011;58887;51.980;4.464;2023-04-25T07:12:45;1314.45;;;1031.17;;
71183;SDS011;58887;51.980;4.464;2023-04-25T07:15:10;1415.14;;;1083.32;;
71183;SDS011;58887;51.980;4.464;2023-04-25T07:17:36;857.83;;;631.17;;
71183;SDS011;58887;51.980;4.464;2023-04-25T07:20:03;2741.63;;;1844.04;;
71183;SDS011;58887;51.980;4.464;2023-04-25T07:22:29;2335.68;;;1696.26;;
71183;SDS011;58887;51.980;4.464;2023-04-25T07:24:55;4820.79;;;3506.87;;
71183;SDS011;58887;51.980;4.464;2023-04-25T07:27:21;1094.10;;;807.87;;
71183;SDS011;58887;51.980;4.464;2023-04-25T07:29:48;2668.41;;;1798.76;;
71183;SDS011;58887;51.980;4.464;2023-04-25T07:32:14;2232.08;;;1461.02;;
71183;SDS011;58887;51.980;4.464;2023-04-25T07:34:39;66.41;;;66.41;;
71183;SDS011;58887;51.980;4.464;2023-04-25T07:37:05;923.05;;;699.31;;
71183;SDS011;58887;51.980;4.464;2023-04-25T07:39:31;2925.64;;;1945.77;;
71183;SDS011;58887;51.980;4.464;2023-04-25T07:41:56;2892.04;;;1915.70;;
71183;SDS011;58887;51.980;4.464;2023-04-25T07:44:24;528.72;;;373.72;;
71183;SDS011;58887;51.980;4.464;2023-04-25T07:46:51;704.93;;;509.49;;
71183;SDS011;58887;51.980;4.464;2023-04-25T07:49:16;77.65;;;76.20;;
71183;SDS011;58887;51.980;4.464;2023-04-25T07:51:42;70.93;;;70.93;;
71183;SDS011;58887;51.980;4.464;2023-04-25T07:54:13;747.64;;;493.67;;
71183;SDS011;58887;51.980;4.464;2023-04-25T07:56:46;4720.62;;;2803.53;;
71183;SDS011;58887;51.980;4.464;2023-04-25T07:59:12;2516.44;;;1466.05;;
71183;SDS011;58887;51.980;4.464;2023-04-25T08:01:37;2505.80;;;1546.42;;
71183;SDS011;58887;51.980;4.464;2023-04-25T08:04:03;2599.21;;;1545.32;;
71183;SDS011;58887;51.980;4.464;2023-04-25T08:06:28;588.68;;;367.95;;
71183;SDS011;58887;51.980;4.464;2023-04-25T08:08:54;3708.72;;;2248.79;;
71183;SDS011;58887;51.980;4.464;2023-04-25T08:11:22;1167.92;;;893.90;;
71183;SDS011;58887;51.980;4.464;2023-04-25T08:13:47;2489.12;;;1682.93;;
71183;SDS011;58887;51.980;4.464;2023-04-25T08:16:14;386.06;;;298.28;;
71183;SDS011;58887;51.980;4.464;2023-04-25T08:18:49;968.13;;;886.10;;
71183;SDS011;58887;51.980;4.464;2023-04-25T08:21:15;774.38;;;512.84;;
71183;SDS011;58887;51.980;4.464;2023-04-25T08:23:41;4888.46;;;2647.37;;
71183;SDS011;58887;51.980;4.464;2023-04-25T08:26:06;2569.87;;;1497.18;;
71183;SDS011;58887;51.980;4.464;2023-04-25T08:28:32;217.48;;;140.32;;
71183;SDS011;58887;51.980;4.464;2023-04-25T08:30:58;12.16;;;12.16;;
71183;SDS011;58887;51.980;4.464;2023-04-25T08:33:24;17.53;;;17.53;;
71183;SDS011;58887;51.980;4.464;2023-04-25T08:35:50;15.71;;;15.71;;
71183;SDS011;58887;51.980;4.464;2023-04-25T08:38:17;10.63;;;10.63;;
71183;SDS011;58887;51.980;4.464;2023-04-25T08:40:50;6.50;;;6.50;;
71183;SDS011;58887;51.980;4.464;2023-04-25T08:43:19;7.66;;;7.66;;
71183;SDS011;58887;51.980;4.464;2023-04-25T08:45:46;2.53;;;2.53;;
71183;SDS011;58887;51.980;4.464;2023-04-25T08:51:10;3010.71;;;1724.93;;
71183;SDS011;58887;51.980;4.464;2023-04-25T08:53:44;2367.29;;;1417.27;;
71183;SDS011;58887;51.980;4.464;2023-04-25T08:56:16;1127.63;;;723.77;;
71183;SDS011;58887;51.980;4.464;2023-04-25T08:58:44;0.85;;;0.85;;
71183;SDS011;58887;51.980;4.464;2023-04-25T09:03:42;0.84;;;0.84;;
71183;SDS011;58887;51.980;4.464;2023-04-25T09:06:10;0.93;;;0.88;;
71183;SDS011;58887;51.980;4.464;2023-04-25T09:08:39;1.13;;;0.99;;
71183;SDS011;58887;51.980;4.464;2023-04-25T09:11:06;12.63;;;11.66;;
71183;SDS011;58887;51.980;4.464;2023-04-25T09:13:32;0.85;;;0.85;;
71183;SDS011;58887;51.980;4.464;2023-04-25T09:15:57;10.10;;;10.10;;
71183;SDS011;58887;51.980;4.464;2023-04-25T09:20:58;19.17;;;19.17;;
71183;SDS011;58887;51.980;4.464;2023-04-25T09:23:41;12.57;;;12.57;;
71183;SDS011;58887;51.980;4.464;2023-04-25T09:26:09;3.52;;;3.52;;
71183;SDS011;58887;51.980;4.464;2023-04-25T09:28:39;2.85;;;2.85;;
71183;SDS011;58887;51.980;4.464;2023-04-25T09:31:07;0.71;;;0.71;;
71183;SDS011;58887;51.980;4.464;2023-04-25T09:33:35;0.73;;;0.73;;
71183;SDS011;58887;51.980;4.464;2023-04-25T09:36:03;0.94;;;0.94;;
71183;SDS011;58887;51.980;4.464;2023-04-25T09:38:31;0.70;;;0.70;;
71183;SDS011;58887;51.980;4.464;2023-04-25T09:41:06;0.59;;;0.59;;
71183;SDS011;58887;51.980;4.464;2023-04-25T09:43:33;0.66;;;0.66;;
71183;SDS011;58887;51.980;4.464;2023-04-25T09:45:58;9.67;;;8.79;;
71183;SDS011;58887;51.980;4.464;2023-04-25T09:48:26;91.60;;;86.67;;
71183;SDS011;58887;51.980;4.464;2023-04-25T09:53:45;5.25;;;5.25;;
71183;SDS011;58887;51.980;4.464;2023-04-25T09:56:24;0.86;;;0.86;;
71183;SDS011;58887;51.980;4.464;2023-04-25T09:59:02;1.58;;;1.58;;
71183;SDS011;58887;51.980;4.464;2023-04-25T10:01:28;0.73;;;0.73;;
71183;SDS011;58887;51.980;4.464;2023-04-25T10:03:57;0.65;;;0.65;;
71183;SDS011;58887;51.980;4.464;2023-04-25T10:06:26;0.71;;;0.71;;
71183;SDS011;58887;51.980;4.464;2023-04-25T10:08:56;1.10;;;1.10;;
71183;SDS011;58887;51.980;4.464;2023-04-25T10:11:26;0.73;;;0.73;;
71183;SDS011;58887;51.980;4.464;2023-04-25T10:13:53;1.11;;;1.02;;
71183;SDS011;58887;51.980;4.464;2023-04-25T10:16:20;1.22;;;1.05;;
71183;SDS011;58887;51.980;4.464;2023-04-25T10:18:48;1.68;;;1.43;;
71183;SDS011;58887;51.980;4.464;2023-04-25T10:21:15;1.08;;;0.95;;
71183;SDS011;58887;51.980;4.464;2023-04-25T10:23:41;1.05;;;0.90;;
71183;SDS011;58887;51.980;4.464;2023-04-25T10:31:30;1.14;;;0.91;;
71183;SDS011;58887;51.980;4.464;2023-04-25T10:33:58;1.63;;;1.28;;
71183;SDS011;58887;51.980;4.464;2023-04-25T10:36:25;1.71;;;1.32;;
71183;SDS011;58887;51.980;4.464;2023-04-25T10:38:58;1.53;;;1.22;;
71183;SDS011;58887;51.980;4.464;2023-04-25T10:41:45;1.37;;;1.08;;
71183;SDS011;58887;51.980;4.464;2023-04-25T10:44:32;1.21;;;0.94;;
71183;SDS011;58887;51.980;4.464;2023-04-25T10:46:58;1.51;;;1.16;;
71183;SDS011;58887;51.980;4.464;2023-04-25T10:49:37;1.62;;;1.23;;
71183;SDS011;58887;51.980;4.464;2023-04-25T10:54:42;1.21;;;0.92;;
71183;SDS011;58887;51.980;4.464;2023-04-25T11:00:17;1.30;;;0.99;;
71183;SDS011;58887;51.980;4.464;2023-04-25T11:02:45;1.35;;;1.02;;
71183;SDS011;58887;51.980;4.464;2023-04-25T11:08:04;1.18;;;0.89;;
71183;SDS011;58887;51.980;4.464;2023-04-25T11:10:36;1.44;;;1.07;;
71183;SDS011;58887;51.980;4.464;2023-04-25T11:13:02;1.61;;;1.19;;
71183;SDS011;58887;51.980;4.464;2023-04-25T11:15:28;1.57;;;1.17;;
71183;SDS011;58887;51.980;4.464;2023-04-25T11:17:54;1.68;;;1.26;;
71183;SDS011;58887;51.980;4.464;2023-04-25T11:20:21;1.57;;;1.15;;
71183;SDS011;58887;51.980;4.464;2023-04-25T11:22:57;1.10;;;0.79;;
71183;SDS011;58887;51.980;4.464;2023-04-25T11:25:26;1.50;;;1.09;;
71183;SDS011;58887;51.980;4.464;2023-04-25T11:27:59;1.49;;;1.07;;
71183;SDS011;58887;51.980;4.464;2023-04-25T11:30:26;1.50;;;1.06;;
71183;SDS011;58887;51.980;4.464;2023-04-25T11:32:53;1.27;;;0.91;;
71183;SDS011;58887;51.980;4.464;2023-04-25T11:35:19;1.49;;;1.06;;
71183;SDS011;58887;51.980;4.464;2023-04-25T11:37:45;3.31;;;2.43;;
71183;SDS011;58887;51.980;4.464;2023-04-25T11:40:12;1.20;;;0.94;;
71183;SDS011;58887;51.980;4.464;2023-04-25T11:42:38;1.35;;;1.06;;
71183;SDS011;58887;51.980;4.464;2023-04-25T11:45:06;1.22;;;0.95;;
71183;SDS011;58887;51.980;4.464;2023-04-25T11:47:34;1.13;;;0.86;;
71183;SDS011;58887;51.980;4.464;2023-04-25T11:50:00;1.37;;;1.04;;
71183;SDS011;58887;51.980;4.464;2023-04-25T11:52:44;1.35;;;1.02;;
71183;SDS011;58887;51.980;4.464;2023-04-25T11:55:18;1.26;;;0.94;;
71183;SDS011;58887;51.980;4.464;2023-04-25T11:57:47;1.54;;;1.19;;
71183;SDS011;58887;51.980;4.464;2023-04-25T12:02:54;1.64;;;1.26;;
71183;SDS011;58887;51.980;4.464;2023-04-25T12:05:23;1.53;;;1.17;;
71183;SDS011;58887;51.980;4.464;2023-04-25T12:10:56;1.46;;;1.12;;
71183;SDS011;58887;51.980;4.464;2023-04-25T12:13:22;1.46;;;1.14;;
71183;SDS011;58887;51.980;4.464;2023-04-25T12:15:50;1.71;;;1.30;;
71183;SDS011;58887;51.980;4.464;2023-04-25T12:18:23;1.93;;;1.46;;
71183;SDS011;58887;51.980;4.464;2023-04-25T12:21:03;3.18;;;2.84;;
71183;SDS011;58887;51.980;4.464;2023-04-25T12:23:30;0.84;;;0.84;;
71183;SDS011;58887;51.980;4.464;2023-04-25T12:25:57;0.84;;;0.84;;
71183;SDS011;58887;51.980;4.464;2023-04-25T12:28:24;1.01;;;0.89;;
71183;SDS011;58887;51.980;4.464;2023-04-25T12:30:54;1.14;;;0.97;;
71183;SDS011;58887;51.980;4.464;2023-04-25T12:33:30;1.04;;;0.89;;
71183;SDS011;58887;51.980;4.464;2023-04-25T12:36:08;1.69;;;1.52;;
71183;SDS011;58887;51.980;4.464;2023-04-25T12:38:37;0.85;;;0.76;;
71183;SDS011;58887;51.980;4.464;2023-04-25T12:41:07;0.93;;;0.82;;
71183;SDS011;58887;51.980;4.464;2023-04-25T12:43:46;1.14;;;0.96;;
71183;SDS011;58887;51.980;4.464;2023-04-25T12:46:12;1.10;;;0.92;;
71183;SDS011;58887;51.980;4.464;2023-04-25T12:48:40;1.15;;;0.96;;
71183;SDS011;58887;51.980;4.464;2023-04-25T12:51:07;1.02;;;0.85;;
71183;SDS011;58887;51.980;4.464;2023-04-25T12:53:33;1.06;;;0.87;;
71183;SDS011;58887;51.980;4.464;2023-04-25T12:56:02;0.89;;;0.73;;
71183;SDS011;58887;51.980;4.464;2023-04-25T13:03:45;1.33;;;1.06;;
71183;SDS011;58887;51.980;4.464;2023-04-25T13:06:11;1.33;;;1.05;;
71183;SDS011;58887;51.980;4.464;2023-04-25T13:08:37;1.16;;;0.92;;
71183;SDS011;58887;51.980;4.464;2023-04-25T13:11:04;1.21;;;0.98;;
71183;SDS011;58887;51.980;4.464;2023-04-25T13:13:31;1.17;;;0.94;;
71183;SDS011;58887;51.980;4.464;2023-04-25T13:16:05;1.68;;;1.35;;
71183;SDS011;58887;51.980;4.464;2023-04-25T13:21:09;1.24;;;0.99;;
71183;SDS011;58887;51.980;4.464;2023-04-25T13:23:44;1.49;;;1.18;;
71183;SDS011;58887;51.980;4.464;2023-04-25T13:26:11;2.50;;;2.02;;
71183;SDS011;58887;51.980;4.464;2023-04-25T13:28:37;1.23;;;1.03;;
71183;SDS011;58887;51.980;4.464;2023-04-25T13:31:11;1.23;;;1.03;;
71183;SDS011;58887;51.980;4.464;2023-04-25T13:33:45;1.14;;;0.95;;
71183;SDS011;58887;51.980;4.464;2023-04-25T13:38:45;1.16;;;0.97;;
71183;SDS011;58887;51.980;4.464;2023-04-25T13:43:58;1.35;;;1.09;;
71183;SDS011;58887;51.980;4.464;2023-04-25T13:46:24;1.47;;;1.16;;
71183;SDS011;58887;51.980;4.464;2023-04-25T13:48:50;1.38;;;1.09;;
71183;SDS011;58887;51.980;4.464;2023-04-25T13:51:15;1.33;;;1.05;;
71183;SDS011;58887;51.980;4.464;2023-04-25T13:53:42;1.59;;;1.22;;
71183;SDS011;58887;51.980;4.464;2023-04-25T13:56:08;1.51;;;1.13;;
71183;SDS011;58887;51.980;4.464;2023-04-25T13:58:40;1.95;;;1.45;;
71183;SDS011;58887;51.980;4.464;2023-04-25T14:03:45;1.17;;;0.90;;
71183;SDS011;58887;51.980;4.464;2023-04-25T14:06:20;1.42;;;1.07;;
71183;SDS011;58887;51.980;4.464;2023-04-25T14:09:00;1.36;;;1.02;;
71183;SDS011;58887;51.980;4.464;2023-04-25T14:11:32;1.39;;;1.04;;
71183;SDS011;58887;51.980;4.464;2023-04-25T14:14:00;1.18;;;0.90;;
71183;SDS011;58887;51.980;4.464;2023-04-25T14:16:25;1.08;;;0.83;;
71183;SDS011;58887;51.980;4.464;2023-04-25T14:19:07;1.42;;;1.10;;
71183;SDS011;58887;51.980;4.464;2023-04-25T14:21:39;1.40;;;1.08;;
71183;SDS011;58887;51.980;4.464;2023-04-25T14:24:04;1.24;;;0.96;;
71183;SDS011;58887;51.980;4.464;2023-04-25T14:26:37;1.03;;;0.81;;
71183;SDS011;58887;51.980;4.464;2023-04-25T14:29:12;1.10;;;0.86;;
71183;SDS011;58887;51.980;4.464;2023-04-25T14:31:38;1.20;;;0.93;;
71183;SDS011;58887;51.980;4.464;2023-04-25T14:34:05;1.35;;;1.04;;
71183;SDS011;58887;51.980;4.464;2023-04-25T14:36:37;1.50;;;1.14;;
71183;SDS011;58887;51.980;4.464;2023-04-25T14:39:03;1.34;;;1.02;;
71183;SDS011;58887;51.980;4.464;2023-04-25T14:41:35;1.14;;;0.86;;
71183;SDS011;58887;51.980;4.464;2023-04-25T14:44:00;1.50;;;1.13;;
71183;SDS011;58887;51.980;4.464;2023-04-25T14:48:55;1.87;;;1.41;;
71183;SDS011;58887;51.980;4.464;2023-04-25T14:51:27;1.40;;;1.08;;
71183;SDS011;58887;51.980;4.464;2023-04-25T14:54:00;1.47;;;1.16;;
71183;SDS011;58887;51.980;4.464;2023-04-25T14:56:25;1.27;;;0.99;;
71183;SDS011;58887;51.980;4.464;2023-04-25T14:58:51;1.18;;;0.92;;
71183;SDS011;58887;51.980;4.464;2023-04-25T15:01:17;1.35;;;1.05;;
71183;SDS011;58887;51.980;4.464;2023-04-25T15:03:42;1.28;;;1.01;;
71183;SDS011;58887;51.980;4.464;2023-04-25T15:06:09;1.54;;;1.23;;
71183;SDS011;58887;51.980;4.464;2023-04-25T15:08:34;2.41;;;2.18;;
71183;SDS011;58887;51.980;4.464;2023-04-25T15:11:01;0.81;;;0.81;;
71183;SDS011;58887;51.980;4.464;2023-04-25T15:13:27;0.79;;;0.79;;
71183;SDS011;58887;51.980;4.464;2023-04-25T15:15:53;0.92;;;0.91;;
71183;SDS011;58887;51.980;4.464;2023-04-25T15:18:22;1.12;;;1.01;;
71183;SDS011;58887;51.980;4.464;2023-04-25T15:20:52;1.11;;;1.00;;
71183;SDS011;58887;51.980;4.464;2023-04-25T15:23:18;1.05;;;0.94;;
71183;SDS011;58887;51.980;4.464;2023-04-25T15:25:45;1.12;;;0.99;;
71183;SDS011;58887;51.980;4.464;2023-04-25T15:28:11;1.36;;;1.18;;
71183;SDS011;58887;51.980;4.464;2023-04-25T15:30:38;1.22;;;1.06;;
71183;SDS011;58887;51.980;4.464;2023-04-25T15:33:04;1.15;;;0.98;;
71183;SDS011;58887;51.980;4.464;2023-04-25T15:35:29;1.04;;;0.88;;
71183;SDS011;58887;51.980;4.464;2023-04-25T15:37:55;1.17;;;0.99;;